• Join FlightAware (Why Join?)
  • Login
  • US Flag 
01:46AM EDT


 

Airport Tracker/Info


-or-


 

Live Flight TrackerFlight Track Log ✈ UCA3596 ✈ 13-Oct-2013 ✈ KBGM - KIAD

Flight Track Log - Related Links

Times and Time Zones

All times are in EDT time to prevent confusion due to time zone crossing. See the UCA3596 flight status page for this flight to view local times or setup timezone preferences in your user account.

Time Position Orientation Groundspeed Altitude Reporting Facility
EDT Latitude Longitude Course Direction KTS MPH feet Rate Location/Type
02:47PM 42.1497 -75.9958 220° Southwest 140 161 4,300  Level New York Center
02:48PM 42.1125 -76.0375 220° Southwest 161 185 5,600 1,380 Climbing New York Center
02:49PM 42.0714 -76.0733 213° Southwest 167 192 7,100 1,500 Climbing New York Center
02:50PM 42.0300 -76.1175 218° Southwest 173 199 8,700 1,440 Climbing New York Center
02:51PM 41.9889 -76.1533 213° Southwest 183 211 10,000 1,200 Climbing New York Center
02:52PM 41.9494 -76.1919 216° Southwest 178 205 11,200 1,200 Climbing New York Center
02:53PM 41.9125 -76.2308 218° Southwest 183 211 12,400 1,260 Climbing New York Center
02:54PM 41.8622 -76.2767 214° Southwest 193 222 13,800 1,320 Climbing New York Center
02:55PM 41.8189 -76.3178 215° Southwest 193 222 15,100 1,080 Climbing New York Center
02:56PM 41.7750 -76.3614 217° Southwest 198 228 16,000 480 Climbing New York Center
02:57PM 41.7272 -76.4075 216° Southwest 219 252 16,100  Climbing New York Center
02:58PM 41.6725 -76.4611 216° Southwest 238 274 16,100  Level New York Center
02:59PM 41.6114 -76.5169 214° Southwest 249 287 16,100 -60 Level New York Center
03:00PM 41.5569 -76.5703 216° Southwest 249 287 16,000 -60 Descending New York Center
03:01PM 41.5044 -76.6186 215° Southwest 254 292 16,000  Level New York Center
03:02PM 41.4497 -76.6719 216° Southwest 254 292 16,000  Level New York Center
03:03PM 41.3886 -76.7303 216° Southwest 254 292 16,000  Level New York Center
03:05PM 41.2603 -76.7933 200° South 247 284 16,000  Level New York Center
03:06PM 41.1908 -76.8064 188° South 252 290 16,000  Level New York Center
03:07PM 41.1214 -76.8194 188° South 257 296 16,000  Level New York Center
03:08PM 41.0497 -76.8353 189° South 257 296 16,000 -60 Level New York Center
03:09PM 40.9803 -76.8483 188° South 257 296 15,900  Descending New York Center
03:10PM 40.9131 -76.8614 188° South 257 296 16,000  Climbing New York Center
03:11PM 40.8436 -76.8744 188° South 257 296 16,000  Level New York Center
03:12PM 40.7739 -76.8903 190° South 257 296 16,000  Level New York Center
03:13PM 40.7061 -76.9117 193° South 257 296 16,000  Level New York Center
03:14PM 40.6383 -76.9328 193° South 252 290 16,000  Level New York Center
03:15PM 40.5686 -76.9539 193° South 252 290 16,000  Level New York Center
03:16PM 40.5028 -76.9753 194° South 252 290 16,000  Level New York Center
03:17PM 40.4414 -76.9944 193° South 252 290 16,000 -600 Level New York Center
03:19PM 40.3000 -77.0333 192° South 241 277 14,200 -900 Descending Potomac TRACON
03:20PM 40.2333 -77.0500 191° South 232 267 13,300 -960 Descending Potomac TRACON
03:21PM 40.1667 -77.0833 201° Southwest 233 268 12,300 -1,020 Descending Potomac TRACON
03:22PM 40.1167 -77.1000 194° South 235 270 11,400 -960 Descending Potomac TRACON
03:23PM 40.0500 -77.1333 201° Southwest 241 277 10,500 -960 Descending Potomac TRACON
03:24PM 39.9833 -77.1667 201° Southwest 244 281 9,500 -780 Descending Potomac TRACON
03:25PM 39.9333 -77.2000 207° Southwest 242 278 9,000 -660 Descending Potomac TRACON
03:26PM 39.8667 -77.2167 191° South 243 280 8,300 -540 Descending Potomac TRACON
03:27PM 39.8000 -77.2500 201° Southwest 234 269 8,000 -540 Descending Potomac TRACON
03:28PM 39.7500 -77.2833 207° Southwest 236 272 7,300 -540 Descending Potomac TRACON
03:29PM 39.6833 -77.3167 201° Southwest 223 257 7,000 -180 Descending Potomac TRACON
03:30PM 39.6333 -77.3333 194° South 227 261 7,000  Level Potomac TRACON
03:31PM 39.5833 -77.3667 207° Southwest 236 272 7,000 -540 Level Potomac TRACON
03:32PM 39.5167 -77.4000 201° Southwest 217 250 6,000 -1,140 Descending Potomac TRACON
03:33PM 39.4667 -77.3833 166° South 217 250 4,800 -1,080 Descending Potomac TRACON
03:34PM 39.4000 -77.3833 180° South 240 276 3,900 -480 Descending Potomac TRACON
03:35PM 39.3333 -77.3833 180° South 229 264 4,000 -360 Climbing Potomac TRACON
03:36PM 39.2667 -77.3667 169° South 230 265 3,200 -540 Descending Potomac TRACON
03:37PM 39.2167 -77.3500 166° South 220 253 3,000 -120 Descending Potomac TRACON
03:38PM 39.1500 -77.3667 191° South 225 259 3,000  Level Potomac TRACON
03:39PM 39.1000 -77.3667 180° South 228 262 3,000  Level Potomac TRACON
03:40PM 39.0333 -77.3667 180° South 228 262 3,000  Level Potomac TRACON
03:41PM 38.9667 -77.3667 180° South 226 260 3,000  Level Potomac TRACON
03:42PM 38.9000 -77.3667 180° South 225 259 3,000  Level Potomac TRACON
03:43PM 38.8500 -77.3667 180° South 224 258 3,000  Level Potomac TRACON
03:44PM 38.7833 -77.3667 180° South 226 260 3,000 -420 Level Potomac TRACON
03:44PM 38.7333 -77.3667 180° South 195 224 2,300 -540 Descending Potomac TRACON
03:45PM 38.7333 -77.4333 270° West 208 239 2,000 -180 Descending Potomac TRACON
03:46PM 38.7833 -77.4333 360° North 179 206 2,000  Level Potomac TRACON
03:47PM 38.8333 -77.4333 360° North 186 214 2,000 -480 Level Potomac TRACON
03:48PM 38.8833 -77.4333 360° North 154 177 1,100 -900 Descending Potomac TRACON